sensor_id;sensor_type;location;lat;lon;timestamp;P1;durP1;ratioP1;P2;durP2;ratioP2
2161;SDS011;1087;50.226;8.682;2022-12-01T00:00:38;21.40;;;14.40;;
2161;SDS011;1087;50.226;8.682;2022-12-01T00:03:04;22.83;;;14.83;;
2161;SDS011;1087;50.226;8.682;2022-12-01T00:05:29;16.40;;;12.80;;
2161;SDS011;1087;50.226;8.682;2022-12-01T00:07:56;17.60;;;13.27;;
2161;SDS011;1087;50.226;8.682;2022-12-01T00:10:23;19.30;;;14.53;;
2161;SDS011;1087;50.226;8.682;2022-12-01T00:12:53;18.40;;;14.03;;
2161;SDS011;1087;50.226;8.682;2022-12-01T00:15:20;21.33;;;15.27;;
2161;SDS011;1087;50.226;8.682;2022-12-01T00:17:47;16.67;;;13.73;;
2161;SDS011;1087;50.226;8.682;2022-12-01T00:20:14;19.27;;;12.40;;
2161;SDS011;1087;50.226;8.682;2022-12-01T00:22:47;22.03;;;14.40;;
2161;SDS011;1087;50.226;8.682;2022-12-01T00:25:13;22.30;;;15.10;;
2161;SDS011;1087;50.226;8.682;2022-12-01T00:27:40;23.20;;;15.20;;
2161;SDS011;1087;50.226;8.682;2022-12-01T00:30:07;19.10;;;14.00;;
2161;SDS011;1087;50.226;8.682;2022-12-01T00:32:34;22.13;;;13.50;;
2161;SDS011;1087;50.226;8.682;2022-12-01T00:35:00;20.83;;;13.57;;
2161;SDS011;1087;50.226;8.682;2022-12-01T00:37:28;22.20;;;14.07;;
2161;SDS011;1087;50.226;8.682;2022-12-01T00:39:54;21.50;;;13.87;;
2161;SDS011;1087;50.226;8.682;2022-12-01T00:42:20;21.10;;;14.43;;
2161;SDS011;1087;50.226;8.682;2022-12-01T00:44:46;26.10;;;16.03;;
2161;SDS011;1087;50.226;8.682;2022-12-01T00:47:12;28.60;;;17.13;;
2161;SDS011;1087;50.226;8.682;2022-12-01T00:49:38;26.80;;;16.83;;
2161;SDS011;1087;50.226;8.682;2022-12-01T00:52:03;27.67;;;16.20;;
2161;SDS011;1087;50.226;8.682;2022-12-01T00:54:29;24.33;;;15.43;;
2161;SDS011;1087;50.226;8.682;2022-12-01T00:56:58;28.00;;;15.53;;
2161;SDS011;1087;50.226;8.682;2022-12-01T00:59:24;26.60;;;15.83;;
2161;SDS011;1087;50.226;8.682;2022-12-01T01:01:50;25.63;;;16.13;;
2161;SDS011;1087;50.226;8.682;2022-12-01T01:04:16;22.40;;;15.20;;
2161;SDS011;1087;50.226;8.682;2022-12-01T01:06:42;27.13;;;16.53;;
2161;SDS011;1087;50.226;8.682;2022-12-01T01:09:08;28.83;;;16.30;;
2161;SDS011;1087;50.226;8.682;2022-12-01T01:11:34;26.27;;;16.23;;
2161;SDS011;1087;50.226;8.682;2022-12-01T01:14:00;25.87;;;15.70;;
2161;SDS011;1087;50.226;8.682;2022-12-01T01:16:25;29.10;;;16.40;;
2161;SDS011;1087;50.226;8.682;2022-12-01T01:18:51;33.67;;;18.20;;
2161;SDS011;1087;50.226;8.682;2022-12-01T01:21:18;27.57;;;17.50;;
2161;SDS011;1087;50.226;8.682;2022-12-01T01:23:45;23.77;;;15.47;;
2161;SDS011;1087;50.226;8.682;2022-12-01T01:26:13;26.30;;;16.87;;
2161;SDS011;1087;50.226;8.682;2022-12-01T01:28:43;28.80;;;17.33;;
2161;SDS011;1087;50.226;8.682;2022-12-01T01:31:11;22.37;;;15.70;;
2161;SDS011;1087;50.226;8.682;2022-12-01T01:33:38;27.10;;;17.20;;
2161;SDS011;1087;50.226;8.682;2022-12-01T01:36:03;25.80;;;16.00;;
2161;SDS011;1087;50.226;8.682;2022-12-01T01:38:30;28.00;;;17.33;;
2161;SDS011;1087;50.226;8.682;2022-12-01T01:40:56;29.90;;;16.33;;
2161;SDS011;1087;50.226;8.682;2022-12-01T01:46:33;28.50;;;17.13;;
2161;SDS011;1087;50.226;8.682;2022-12-01T01:51:34;30.83;;;17.13;;
2161;SDS011;1087;50.226;8.682;2022-12-01T01:54:09;29.37;;;16.07;;
2161;SDS011;1087;50.226;8.682;2022-12-01T01:56:39;29.80;;;18.57;;
2161;SDS011;1087;50.226;8.682;2022-12-01T01:59:07;35.30;;;18.70;;
2161;SDS011;1087;50.226;8.682;2022-12-01T02:01:34;30.63;;;16.60;;
2161;SDS011;1087;50.226;8.682;2022-12-01T02:04:00;28.87;;;18.30;;
2161;SDS011;1087;50.226;8.682;2022-12-01T02:06:26;35.40;;;18.63;;
2161;SDS011;1087;50.226;8.682;2022-12-01T02:08:52;31.03;;;16.80;;
2161;SDS011;1087;50.226;8.682;2022-12-01T02:14:23;29.70;;;19.80;;
2161;SDS011;1087;50.226;8.682;2022-12-01T02:22:29;29.57;;;17.40;;
2161;SDS011;1087;50.226;8.682;2022-12-01T02:30:40;32.87;;;18.53;;
2161;SDS011;1087;50.226;8.682;2022-12-01T02:33:24;34.13;;;17.70;;
2161;SDS011;1087;50.226;8.682;2022-12-01T02:38:29;32.73;;;17.40;;
2161;SDS011;1087;50.226;8.682;2022-12-01T02:46:57;25.97;;;15.70;;
2161;SDS011;1087;50.226;8.682;2022-12-01T02:49:28;24.50;;;15.20;;
2161;SDS011;1087;50.226;8.682;2022-12-01T02:52:01;28.50;;;16.50;;
2161;SDS011;1087;50.226;8.682;2022-12-01T02:54:30;23.07;;;15.73;;
2161;SDS011;1087;50.226;8.682;2022-12-01T02:56:56;23.60;;;15.13;;
2161;SDS011;1087;50.226;8.682;2022-12-01T02:59:22;24.80;;;16.90;;
2161;SDS011;1087;50.226;8.682;2022-12-01T03:04:41;26.83;;;17.37;;
2161;SDS011;1087;50.226;8.682;2022-12-01T03:10:12;26.90;;;17.17;;
2161;SDS011;1087;50.226;8.682;2022-12-01T03:15:57;26.00;;;16.10;;
2161;SDS011;1087;50.226;8.682;2022-12-01T03:21:12;23.87;;;15.50;;
2161;SDS011;1087;50.226;8.682;2022-12-01T03:23:47;26.13;;;15.63;;
2161;SDS011;1087;50.226;8.682;2022-12-01T03:26:23;24.97;;;16.27;;
2161;SDS011;1087;50.226;8.682;2022-12-01T03:28:53;27.37;;;16.53;;
2161;SDS011;1087;50.226;8.682;2022-12-01T03:31:25;25.87;;;15.20;;
2161;SDS011;1087;50.226;8.682;2022-12-01T03:34:17;26.73;;;16.63;;
2161;SDS011;1087;50.226;8.682;2022-12-01T03:36:55;25.60;;;15.47;;
2161;SDS011;1087;50.226;8.682;2022-12-01T03:39:26;23.67;;;16.23;;
2161;SDS011;1087;50.226;8.682;2022-12-01T03:41:59;24.77;;;15.30;;
2161;SDS011;1087;50.226;8.682;2022-12-01T03:44:32;29.03;;;18.00;;
2161;SDS011;1087;50.226;8.682;2022-12-01T03:47:06;23.37;;;16.03;;
2161;SDS011;1087;50.226;8.682;2022-12-01T03:49:36;24.77;;;16.40;;
2161;SDS011;1087;50.226;8.682;2022-12-01T03:57:40;23.00;;;15.93;;
2161;SDS011;1087;50.226;8.682;2022-12-01T04:00:10;24.33;;;16.33;;
2161;SDS011;1087;50.226;8.682;2022-12-01T04:02:37;24.47;;;16.47;;
2161;SDS011;1087;50.226;8.682;2022-12-01T04:05:04;25.67;;;16.63;;
2161;SDS011;1087;50.226;8.682;2022-12-01T04:07:30;24.97;;;16.07;;
2161;SDS011;1087;50.226;8.682;2022-12-01T04:09:55;25.30;;;14.90;;
2161;SDS011;1087;50.226;8.682;2022-12-01T04:12:21;25.33;;;16.07;;
2161;SDS011;1087;50.226;8.682;2022-12-01T04:15:06;23.27;;;15.40;;
2161;SDS011;1087;50.226;8.682;2022-12-01T04:17:34;24.07;;;17.57;;
2161;SDS011;1087;50.226;8.682;2022-12-01T04:20:00;25.10;;;16.57;;
2161;SDS011;1087;50.226;8.682;2022-12-01T04:22:25;26.70;;;15.83;;
2161;SDS011;1087;50.226;8.682;2022-12-01T04:24:51;27.77;;;18.20;;
2161;SDS011;1087;50.226;8.682;2022-12-01T04:27:18;25.77;;;17.70;;
2161;SDS011;1087;50.226;8.682;2022-12-01T04:29:44;22.80;;;17.40;;
2161;SDS011;1087;50.226;8.682;2022-12-01T04:32:09;24.67;;;16.57;;
2161;SDS011;1087;50.226;8.682;2022-12-01T04:34:35;25.20;;;15.90;;
2161;SDS011;1087;50.226;8.682;2022-12-01T04:37:01;23.87;;;15.53;;
2161;SDS011;1087;50.226;8.682;2022-12-01T04:39:28;27.00;;;16.90;;
2161;SDS011;1087;50.226;8.682;2022-12-01T04:41:53;27.87;;;18.07;;
2161;SDS011;1087;50.226;8.682;2022-12-01T04:44:19;26.07;;;17.10;;
2161;SDS011;1087;50.226;8.682;2022-12-01T04:46:45;23.80;;;16.70;;
2161;SDS011;1087;50.226;8.682;2022-12-01T04:49:10;25.10;;;16.07;;
2161;SDS011;1087;50.226;8.682;2022-12-01T04:51:36;27.40;;;17.93;;
2161;SDS011;1087;50.226;8.682;2022-12-01T04:54:01;26.57;;;15.90;;
2161;SDS011;1087;50.226;8.682;2022-12-01T04:56:27;24.57;;;16.33;;
2161;SDS011;1087;50.226;8.682;2022-12-01T04:58:53;27.67;;;16.60;;
2161;SDS011;1087;50.226;8.682;2022-12-01T05:01:18;28.77;;;17.20;;
2161;SDS011;1087;50.226;8.682;2022-12-01T05:03:45;27.03;;;17.93;;
2161;SDS011;1087;50.226;8.682;2022-12-01T05:06:16;27.83;;;17.50;;
2161;SDS011;1087;50.226;8.682;2022-12-01T05:08:49;23.43;;;17.20;;
2161;SDS011;1087;50.226;8.682;2022-12-01T05:11:15;25.23;;;17.33;;
2161;SDS011;1087;50.226;8.682;2022-12-01T05:13:42;27.13;;;19.10;;
2161;SDS011;1087;50.226;8.682;2022-12-01T05:16:10;29.77;;;18.47;;
2161;SDS011;1087;50.226;8.682;2022-12-01T05:18:36;25.00;;;15.80;;
2161;SDS011;1087;50.226;8.682;2022-12-01T05:21:02;24.97;;;16.70;;
2161;SDS011;1087;50.226;8.682;2022-12-01T05:23:31;24.57;;;16.50;;
2161;SDS011;1087;50.226;8.682;2022-12-01T05:25:58;25.23;;;18.23;;
2161;SDS011;1087;50.226;8.682;2022-12-01T05:28:24;24.77;;;16.33;;
2161;SDS011;1087;50.226;8.682;2022-12-01T05:30:51;24.60;;;16.07;;
2161;SDS011;1087;50.226;8.682;2022-12-01T05:33:18;24.90;;;16.17;;
2161;SDS011;1087;50.226;8.682;2022-12-01T05:35:44;25.83;;;18.33;;
2161;SDS011;1087;50.226;8.682;2022-12-01T05:38:09;32.37;;;18.47;;
2161;SDS011;1087;50.226;8.682;2022-12-01T05:40:35;25.83;;;16.93;;
2161;SDS011;1087;50.226;8.682;2022-12-01T05:43:02;26.13;;;16.83;;
2161;SDS011;1087;50.226;8.682;2022-12-01T05:45:28;28.40;;;17.20;;
2161;SDS011;1087;50.226;8.682;2022-12-01T05:47:54;26.70;;;18.10;;
2161;SDS011;1087;50.226;8.682;2022-12-01T05:50:20;29.50;;;17.60;;
2161;SDS011;1087;50.226;8.682;2022-12-01T05:52:46;28.67;;;18.10;;
2161;SDS011;1087;50.226;8.682;2022-12-01T05:55:11;26.60;;;17.53;;
2161;SDS011;1087;50.226;8.682;2022-12-01T05:57:37;31.13;;;18.57;;
2161;SDS011;1087;50.226;8.682;2022-12-01T06:00:03;25.90;;;16.57;;
2161;SDS011;1087;50.226;8.682;2022-12-01T06:02:30;24.50;;;16.93;;
2161;SDS011;1087;50.226;8.682;2022-12-01T06:04:55;27.03;;;17.43;;
2161;SDS011;1087;50.226;8.682;2022-12-01T06:07:21;27.90;;;17.37;;
2161;SDS011;1087;50.226;8.682;2022-12-01T06:09:47;30.00;;;17.90;;
2161;SDS011;1087;50.226;8.682;2022-12-01T06:12:13;27.13;;;20.93;;
2161;SDS011;1087;50.226;8.682;2022-12-01T06:14:39;26.60;;;18.63;;
2161;SDS011;1087;50.226;8.682;2022-12-01T06:17:04;29.47;;;19.67;;
2161;SDS011;1087;50.226;8.682;2022-12-01T06:19:30;29.40;;;20.10;;
2161;SDS011;1087;50.226;8.682;2022-12-01T06:21:55;29.87;;;20.33;;
2161;SDS011;1087;50.226;8.682;2022-12-01T06:24:21;28.37;;;18.57;;
2161;SDS011;1087;50.226;8.682;2022-12-01T06:26:47;29.90;;;19.03;;
2161;SDS011;1087;50.226;8.682;2022-12-01T06:29:12;34.23;;;20.93;;
2161;SDS011;1087;50.226;8.682;2022-12-01T06:31:38;26.93;;;17.37;;
2161;SDS011;1087;50.226;8.682;2022-12-01T06:34:04;30.07;;;20.10;;
2161;SDS011;1087;50.226;8.682;2022-12-01T06:36:29;31.50;;;21.73;;
2161;SDS011;1087;50.226;8.682;2022-12-01T06:38:55;28.40;;;19.27;;
2161;SDS011;1087;50.226;8.682;2022-12-01T06:41:20;27.77;;;19.17;;
2161;SDS011;1087;50.226;8.682;2022-12-01T06:43:46;28.07;;;18.13;;
2161;SDS011;1087;50.226;8.682;2022-12-01T06:46:11;39.00;;;23.53;;
2161;SDS011;1087;50.226;8.682;2022-12-01T06:48:37;38.23;;;24.40;;
2161;SDS011;1087;50.226;8.682;2022-12-01T06:51:03;33.97;;;22.80;;
2161;SDS011;1087;50.226;8.682;2022-12-01T06:53:28;31.83;;;18.10;;
2161;SDS011;1087;50.226;8.682;2022-12-01T06:56:00;25.90;;;16.77;;
2161;SDS011;1087;50.226;8.682;2022-12-01T06:58:29;30.37;;;20.90;;
2161;SDS011;1087;50.226;8.682;2022-12-01T07:00:55;29.37;;;22.13;;
2161;SDS011;1087;50.226;8.682;2022-12-01T07:03:22;29.83;;;19.80;;
2161;SDS011;1087;50.226;8.682;2022-12-01T07:05:54;30.80;;;19.30;;
2161;SDS011;1087;50.226;8.682;2022-12-01T07:08:22;32.87;;;21.83;;
2161;SDS011;1087;50.226;8.682;2022-12-01T07:10:55;26.13;;;20.03;;
2161;SDS011;1087;50.226;8.682;2022-12-01T07:13:31;25.60;;;16.20;;
2161;SDS011;1087;50.226;8.682;2022-12-01T07:15:57;22.43;;;15.90;;
2161;SDS011;1087;50.226;8.682;2022-12-01T07:18:23;23.33;;;15.80;;
2161;SDS011;1087;50.226;8.682;2022-12-01T07:20:49;24.20;;;16.37;;
2161;SDS011;1087;50.226;8.682;2022-12-01T07:23:14;25.03;;;15.97;;
2161;SDS011;1087;50.226;8.682;2022-12-01T07:25:40;23.63;;;15.33;;
2161;SDS011;1087;50.226;8.682;2022-12-01T07:28:06;23.90;;;16.30;;
2161;SDS011;1087;50.226;8.682;2022-12-01T07:30:31;23.33;;;15.53;;
2161;SDS011;1087;50.226;8.682;2022-12-01T07:32:57;23.13;;;16.93;;
2161;SDS011;1087;50.226;8.682;2022-12-01T07:35:23;23.20;;;16.40;;
2161;SDS011;1087;50.226;8.682;2022-12-01T07:37:52;22.33;;;15.13;;
2161;SDS011;1087;50.226;8.682;2022-12-01T07:40:21;23.27;;;15.67;;
2161;SDS011;1087;50.226;8.682;2022-12-01T07:42:47;24.00;;;15.93;;
2161;SDS011;1087;50.226;8.682;2022-12-01T07:45:13;26.87;;;17.40;;
2161;SDS011;1087;50.226;8.682;2022-12-01T07:47:38;21.50;;;14.90;;
2161;SDS011;1087;50.226;8.682;2022-12-01T07:50:04;23.87;;;15.93;;
2161;SDS011;1087;50.226;8.682;2022-12-01T07:52:30;26.97;;;17.17;;
2161;SDS011;1087;50.226;8.682;2022-12-01T07:54:56;24.43;;;15.53;;
2161;SDS011;1087;50.226;8.682;2022-12-01T07:57:21;18.80;;;15.27;;
2161;SDS011;1087;50.226;8.682;2022-12-01T07:59:47;22.97;;;14.80;;
2161;SDS011;1087;50.226;8.682;2022-12-01T08:02:13;24.30;;;16.17;;
2161;SDS011;1087;50.226;8.682;2022-12-01T08:04:39;24.63;;;16.50;;
2161;SDS011;1087;50.226;8.682;2022-12-01T08:07:04;20.97;;;14.63;;
2161;SDS011;1087;50.226;8.682;2022-12-01T08:09:30;23.47;;;14.90;;
2161;SDS011;1087;50.226;8.682;2022-12-01T08:11:55;23.07;;;14.37;;
2161;SDS011;1087;50.226;8.682;2022-12-01T08:14:21;21.17;;;14.70;;
2161;SDS011;1087;50.226;8.682;2022-12-01T08:16:47;26.10;;;15.50;;
2161;SDS011;1087;50.226;8.682;2022-12-01T08:19:13;23.00;;;15.37;;
2161;SDS011;1087;50.226;8.682;2022-12-01T08:21:38;23.20;;;16.57;;
2161;SDS011;1087;50.226;8.682;2022-12-01T08:24:04;24.23;;;15.53;;
2161;SDS011;1087;50.226;8.682;2022-12-01T08:26:29;25.33;;;16.00;;
2161;SDS011;1087;50.226;8.682;2022-12-01T08:28:55;21.37;;;15.87;;
2161;SDS011;1087;50.226;8.682;2022-12-01T08:31:23;22.73;;;15.00;;
2161;SDS011;1087;50.226;8.682;2022-12-01T08:33:52;23.20;;;16.03;;
2161;SDS011;1087;50.226;8.682;2022-12-01T08:36:18;23.77;;;15.80;;
2161;SDS011;1087;50.226;8.682;2022-12-01T08:38:45;20.33;;;15.00;;
2161;SDS011;1087;50.226;8.682;2022-12-01T08:41:12;21.00;;;15.00;;
2161;SDS011;1087;50.226;8.682;2022-12-01T08:43:38;25.47;;;14.97;;
2161;SDS011;1087;50.226;8.682;2022-12-01T08:46:06;22.60;;;16.57;;
2161;SDS011;1087;50.226;8.682;2022-12-01T08:48:32;23.60;;;15.60;;
2161;SDS011;1087;50.226;8.682;2022-12-01T08:53:27;18.83;;;13.17;;
2161;SDS011;1087;50.226;8.682;2022-12-01T08:55:52;25.10;;;17.27;;
2161;SDS011;1087;50.226;8.682;2022-12-01T08:58:18;22.07;;;16.70;;
2161;SDS011;1087;50.226;8.682;2022-12-01T09:00:43;23.47;;;17.20;;
2161;SDS011;1087;50.226;8.682;2022-12-01T09:03:09;20.30;;;15.97;;
2161;SDS011;1087;50.226;8.682;2022-12-01T09:05:34;20.10;;;15.57;;
2161;SDS011;1087;50.226;8.682;2022-12-01T09:08:00;20.00;;;16.30;;
2161;SDS011;1087;50.226;8.682;2022-12-01T09:10:49;28.33;;;20.77;;
2161;SDS011;1087;50.226;8.682;2022-12-01T09:13:16;26.20;;;18.10;;
2161;SDS011;1087;50.226;8.682;2022-12-01T09:15:41;28.23;;;19.40;;
2161;SDS011;1087;50.226;8.682;2022-12-01T09:18:07;21.60;;;14.63;;
2161;SDS011;1087;50.226;8.682;2022-12-01T09:20:32;24.10;;;15.60;;
2161;SDS011;1087;50.226;8.682;2022-12-01T09:22:58;26.37;;;16.47;;
2161;SDS011;1087;50.226;8.682;2022-12-01T09:25:23;25.97;;;18.00;;
2161;SDS011;1087;50.226;8.682;2022-12-01T09:27:49;23.90;;;17.00;;
2161;SDS011;1087;50.226;8.682;2022-12-01T09:30:15;22.80;;;16.33;;
2161;SDS011;1087;50.226;8.682;2022-12-01T09:32:41;21.73;;;16.20;;
2161;SDS011;1087;50.226;8.682;2022-12-01T09:35:06;20.23;;;13.93;;
2161;SDS011;1087;50.226;8.682;2022-12-01T09:37:32;21.60;;;15.30;;
2161;SDS011;1087;50.226;8.682;2022-12-01T09:39:57;21.37;;;13.37;;
2161;SDS011;1087;50.226;8.682;2022-12-01T09:42:23;20.37;;;13.50;;
2161;SDS011;1087;50.226;8.682;2022-12-01T09:44:52;23.77;;;15.00;;
2161;SDS011;1087;50.226;8.682;2022-12-01T09:47:24;18.83;;;14.03;;
2161;SDS011;1087;50.226;8.682;2022-12-01T09:49:55;20.50;;;14.43;;
2161;SDS011;1087;50.226;8.682;2022-12-01T09:52:48;23.20;;;15.57;;
2161;SDS011;1087;50.226;8.682;2022-12-01T09:55:15;22.40;;;14.60;;
2161;SDS011;1087;50.226;8.682;2022-12-01T09:57:42;20.80;;;14.33;;
2161;SDS011;1087;50.226;8.682;2022-12-01T10:00:13;23.83;;;15.70;;
2161;SDS011;1087;50.226;8.682;2022-12-01T10:05:20;21.90;;;14.40;;
2161;SDS011;1087;50.226;8.682;2022-12-01T10:07:51;24.70;;;16.07;;
2161;SDS011;1087;50.226;8.682;2022-12-01T10:10:30;30.33;;;18.57;;
2161;SDS011;1087;50.226;8.682;2022-12-01T10:13:00;25.47;;;17.03;;
2161;SDS011;1087;50.226;8.682;2022-12-01T10:21:12;23.70;;;15.93;;
2161;SDS011;1087;50.226;8.682;2022-12-01T10:24:06;25.00;;;17.70;;
2161;SDS011;1087;50.226;8.682;2022-12-01T10:32:20;22.83;;;15.43;;
2161;SDS011;1087;50.226;8.682;2022-12-01T10:35:10;20.70;;;14.00;;
2161;SDS011;1087;50.226;8.682;2022-12-01T10:37:39;23.40;;;14.97;;
2161;SDS011;1087;50.226;8.682;2022-12-01T10:40:10;23.60;;;15.43;;
2161;SDS011;1087;50.226;8.682;2022-12-01T10:45:08;20.13;;;14.50;;
2161;SDS011;1087;50.226;8.682;2022-12-01T10:50:40;26.63;;;15.83;;
2161;SDS011;1087;50.226;8.682;2022-12-01T10:53:10;21.03;;;15.60;;
2161;SDS011;1087;50.226;8.682;2022-12-01T10:55:47;22.20;;;13.70;;
2161;SDS011;1087;50.226;8.682;2022-12-01T10:58:15;26.30;;;17.00;;
2161;SDS011;1087;50.226;8.682;2022-12-01T11:00:43;21.30;;;15.73;;
2161;SDS011;1087;50.226;8.682;2022-12-01T11:03:23;21.10;;;13.63;;
2161;SDS011;1087;50.226;8.682;2022-12-01T11:05:52;20.93;;;14.33;;
2161;SDS011;1087;50.226;8.682;2022-12-01T11:08:23;21.70;;;13.93;;
2161;SDS011;1087;50.226;8.682;2022-12-01T11:10:53;20.73;;;14.47;;
2161;SDS011;1087;50.226;8.682;2022-12-01T11:13:25;26.20;;;15.60;;
2161;SDS011;1087;50.226;8.682;2022-12-01T11:15:54;20.50;;;14.10;;
2161;SDS011;1087;50.226;8.682;2022-12-01T11:18:37;22.90;;;14.90;;
2161;SDS011;1087;50.226;8.682;2022-12-01T11:21:11;23.67;;;15.70;;
2161;SDS011;1087;50.226;8.682;2022-12-01T11:23:48;20.70;;;14.00;;
2161;SDS011;1087;50.226;8.682;2022-12-01T11:26:22;24.47;;;15.17;;
2161;SDS011;1087;50.226;8.682;2022-12-01T11:29:00;20.77;;;15.20;;
2161;SDS011;1087;50.226;8.682;2022-12-01T11:31:48;24.90;;;14.90;;
2161;SDS011;1087;50.226;8.682;2022-12-01T11:36:55;21.80;;;14.73;;
2161;SDS011;1087;50.226;8.682;2022-12-01T11:39:33;23.20;;;15.13;;
2161;SDS011;1087;50.226;8.682;2022-12-01T11:42:02;21.07;;;13.83;;
2161;SDS011;1087;50.226;8.682;2022-12-01T11:44:38;27.10;;;16.00;;
2161;SDS011;1087;50.226;8.682;2022-12-01T11:47:11;23.73;;;15.30;;
2161;SDS011;1087;50.226;8.682;2022-12-01T11:49:39;20.47;;;15.00;;
2161;SDS011;1087;50.226;8.682;2022-12-01T11:57:35;22.37;;;15.30;;
2161;SDS011;1087;50.226;8.682;2022-12-01T12:00:13;24.67;;;15.80;;
2161;SDS011;1087;50.226;8.682;2022-12-01T12:13:25;23.10;;;15.67;;
2161;SDS011;1087;50.226;8.682;2022-12-01T12:27:43;23.97;;;14.93;;
2161;SDS011;1087;50.226;8.682;2022-12-01T12:35:43;21.63;;;13.47;;
2161;SDS011;1087;50.226;8.682;2022-12-01T12:44:27;24.37;;;15.77;;
2161;SDS011;1087;50.226;8.682;2022-12-01T12:52:15;22.47;;;15.27;;
2161;SDS011;1087;50.226;8.682;2022-12-01T12:54:56;23.03;;;16.20;;
2161;SDS011;1087;50.226;8.682;2022-12-01T12:57:27;22.83;;;16.03;;
2161;SDS011;1087;50.226;8.682;2022-12-01T13:02:34;23.63;;;15.27;;
2161;SDS011;1087;50.226;8.682;2022-12-01T13:05:24;21.60;;;15.03;;
2161;SDS011;1087;50.226;8.682;2022-12-01T13:08:08;23.83;;;16.53;;
2161;SDS011;1087;50.226;8.682;2022-12-01T13:10:40;22.93;;;16.57;;
2161;SDS011;1087;50.226;8.682;2022-12-01T13:15:58;22.17;;;14.40;;
2161;SDS011;1087;50.226;8.682;2022-12-01T13:18:29;23.53;;;15.77;;
2161;SDS011;1087;50.226;8.682;2022-12-01T13:20:56;23.27;;;16.40;;
2161;SDS011;1087;50.226;8.682;2022-12-01T13:23:22;21.80;;;15.90;;
2161;SDS011;1087;50.226;8.682;2022-12-01T13:25:49;22.50;;;15.63;;
2161;SDS011;1087;50.226;8.682;2022-12-01T13:28:23;20.63;;;16.27;;
2161;SDS011;1087;50.226;8.682;2022-12-01T13:30:57;21.30;;;15.33;;
2161;SDS011;1087;50.226;8.682;2022-12-01T13:33:24;23.77;;;15.73;;
2161;SDS011;1087;50.226;8.682;2022-12-01T13:35:51;28.83;;;16.40;;
2161;SDS011;1087;50.226;8.682;2022-12-01T13:57:26;22.00;;;15.77;;
2161;SDS011;1087;50.226;8.682;2022-12-01T14:02:34;22.43;;;15.00;;
2161;SDS011;1087;50.226;8.682;2022-12-01T14:08:11;20.33;;;14.70;;
2161;SDS011;1087;50.226;8.682;2022-12-01T14:10:55;20.47;;;13.93;;
2161;SDS011;1087;50.226;8.682;2022-12-01T14:13:23;22.63;;;14.03;;
2161;SDS011;1087;50.226;8.682;2022-12-01T14:15:57;23.30;;;16.40;;
2161;SDS011;1087;50.226;8.682;2022-12-01T14:18:32;21.47;;;15.00;;
2161;SDS011;1087;50.226;8.682;2022-12-01T14:21:07;27.23;;;15.80;;
2161;SDS011;1087;50.226;8.682;2022-12-01T14:23:36;23.17;;;16.17;;
2161;SDS011;1087;50.226;8.682;2022-12-01T14:26:15;23.93;;;14.87;;
2161;SDS011;1087;50.226;8.682;2022-12-01T14:34:17;21.73;;;13.90;;
2161;SDS011;1087;50.226;8.682;2022-12-01T14:41:56;25.03;;;15.60;;
2161;SDS011;1087;50.226;8.682;2022-12-01T14:44:29;24.90;;;16.03;;
2161;SDS011;1087;50.226;8.682;2022-12-01T14:52:38;19.40;;;13.77;;
2161;SDS011;1087;50.226;8.682;2022-12-01T14:55:26;21.83;;;15.07;;
2161;SDS011;1087;50.226;8.682;2022-12-01T14:58:01;23.13;;;14.33;;
2161;SDS011;1087;50.226;8.682;2022-12-01T15:00:29;19.67;;;13.30;;
2161;SDS011;1087;50.226;8.682;2022-12-01T15:02:57;20.67;;;13.97;;
2161;SDS011;1087;50.226;8.682;2022-12-01T15:05:40;24.33;;;16.63;;
2161;SDS011;1087;50.226;8.682;2022-12-01T15:08:20;26.20;;;16.20;;
2161;SDS011;1087;50.226;8.682;2022-12-01T15:10:49;21.67;;;15.53;;
2161;SDS011;1087;50.226;8.682;2022-12-01T15:15:58;19.60;;;14.50;;
2161;SDS011;1087;50.226;8.682;2022-12-01T15:18:27;19.43;;;14.53;;
2161;SDS011;1087;50.226;8.682;2022-12-01T15:21:06;23.20;;;14.30;;
2161;SDS011;1087;50.226;8.682;2022-12-01T15:23:36;20.60;;;14.70;;
2161;SDS011;1087;50.226;8.682;2022-12-01T15:26:17;21.33;;;13.70;;
2161;SDS011;1087;50.226;8.682;2022-12-01T15:28:44;30.07;;;16.40;;
2161;SDS011;1087;50.226;8.682;2022-12-01T15:31:11;24.07;;;14.90;;
2161;SDS011;1087;50.226;8.682;2022-12-01T15:33:40;24.30;;;15.07;;
2161;SDS011;1087;50.226;8.682;2022-12-01T15:36:13;21.67;;;15.33;;
2161;SDS011;1087;50.226;8.682;2022-12-01T15:38:39;19.70;;;13.80;;
2161;SDS011;1087;50.226;8.682;2022-12-01T15:41:12;24.10;;;15.70;;
2161;SDS011;1087;50.226;8.682;2022-12-01T15:43:43;23.50;;;15.10;;
2161;SDS011;1087;50.226;8.682;2022-12-01T15:46:17;25.37;;;16.33;;
2161;SDS011;1087;50.226;8.682;2022-12-01T15:48:43;23.70;;;15.17;;
2161;SDS011;1087;50.226;8.682;2022-12-01T15:51:19;24.57;;;16.33;;
2161;SDS011;1087;50.226;8.682;2022-12-01T15:53:51;25.90;;;16.00;;
2161;SDS011;1087;50.226;8.682;2022-12-01T15:56:26;25.50;;;18.37;;
2161;SDS011;1087;50.226;8.682;2022-12-01T15:59:05;29.47;;;20.93;;
2161;SDS011;1087;50.226;8.682;2022-12-01T16:01:33;30.43;;;19.00;;
2161;SDS011;1087;50.226;8.682;2022-12-01T16:04:14;38.50;;;23.07;;
2161;SDS011;1087;50.226;8.682;2022-12-01T16:06:40;27.13;;;20.60;;
2161;SDS011;1087;50.226;8.682;2022-12-01T16:09:54;27.00;;;18.70;;
2161;SDS011;1087;50.226;8.682;2022-12-01T16:14:48;28.93;;;19.10;;
2161;SDS011;1087;50.226;8.682;2022-12-01T16:17:15;25.77;;;19.20;;
2161;SDS011;1087;50.226;8.682;2022-12-01T16:19:41;27.97;;;19.97;;
2161;SDS011;1087;50.226;8.682;2022-12-01T16:27:05;25.50;;;17.73;;
2161;SDS011;1087;50.226;8.682;2022-12-01T16:32:18;27.67;;;17.10;;
2161;SDS011;1087;50.226;8.682;2022-12-01T16:34:48;26.70;;;16.90;;
2161;SDS011;1087;50.226;8.682;2022-12-01T16:37:16;28.30;;;17.40;;
2161;SDS011;1087;50.226;8.682;2022-12-01T16:39:42;27.80;;;17.53;;
2161;SDS011;1087;50.226;8.682;2022-12-01T16:42:10;24.67;;;16.63;;
2161;SDS011;1087;50.226;8.682;2022-12-01T16:44:36;27.37;;;16.37;;
2161;SDS011;1087;50.226;8.682;2022-12-01T16:47:02;24.70;;;16.57;;
2161;SDS011;1087;50.226;8.682;2022-12-01T16:49:27;28.97;;;17.47;;
2161;SDS011;1087;50.226;8.682;2022-12-01T16:51:53;33.53;;;18.37;;
2161;SDS011;1087;50.226;8.682;2022-12-01T16:54:18;28.73;;;17.53;;
2161;SDS011;1087;50.226;8.682;2022-12-01T16:56:44;30.53;;;17.87;;
2161;SDS011;1087;50.226;8.682;2022-12-01T16:59:09;35.93;;;19.53;;
2161;SDS011;1087;50.226;8.682;2022-12-01T17:01:35;28.20;;;18.50;;
2161;SDS011;1087;50.226;8.682;2022-12-01T17:04:00;29.03;;;18.90;;
2161;SDS011;1087;50.226;8.682;2022-12-01T17:06:26;31.07;;;17.80;;
2161;SDS011;1087;50.226;8.682;2022-12-01T17:08:51;32.53;;;18.80;;
2161;SDS011;1087;50.226;8.682;2022-12-01T17:11:17;30.80;;;19.03;;
2161;SDS011;1087;50.226;8.682;2022-12-01T17:13:42;31.27;;;19.30;;
2161;SDS011;1087;50.226;8.682;2022-12-01T17:16:08;29.37;;;18.10;;
2161;SDS011;1087;50.226;8.682;2022-12-01T17:18:35;31.00;;;17.80;;
2161;SDS011;1087;50.226;8.682;2022-12-01T17:21:02;31.03;;;20.67;;
2161;SDS011;1087;50.226;8.682;2022-12-01T17:23:30;39.27;;;27.47;;
2161;SDS011;1087;50.226;8.682;2022-12-01T17:25:57;43.20;;;26.20;;
2161;SDS011;1087;50.226;8.682;2022-12-01T17:28:22;40.67;;;25.37;;
2161;SDS011;1087;50.226;8.682;2022-12-01T17:30:48;35.17;;;21.03;;
2161;SDS011;1087;50.226;8.682;2022-12-01T17:33:14;32.27;;;19.80;;
2161;SDS011;1087;50.226;8.682;2022-12-01T17:35:39;32.23;;;21.10;;
2161;SDS011;1087;50.226;8.682;2022-12-01T17:38:05;31.90;;;18.87;;
2161;SDS011;1087;50.226;8.682;2022-12-01T17:40:31;30.80;;;17.50;;
2161;SDS011;1087;50.226;8.682;2022-12-01T17:42:56;31.57;;;20.77;;
2161;SDS011;1087;50.226;8.682;2022-12-01T17:45:22;33.47;;;20.17;;
2161;SDS011;1087;50.226;8.682;2022-12-01T17:47:48;33.03;;;21.43;;
2161;SDS011;1087;50.226;8.682;2022-12-01T17:50:13;33.10;;;19.93;;
2161;SDS011;1087;50.226;8.682;2022-12-01T17:52:40;37.93;;;21.93;;